createdAt,value
2023-03-13T00:01:29.056Z,3.42
2023-03-13T00:05:18.015Z,3.38
2023-03-13T00:09:07.101Z,3.43
2023-03-13T00:12:56.706Z,3.45
2023-03-13T00:16:34.647Z,3.43
2023-03-13T00:20:17.488Z,3.43
2023-03-13T00:24:06.393Z,3.47
2023-03-13T00:27:48.058Z,3.68
2023-03-13T00:31:42.696Z,3.84
2023-03-13T00:35:31.700Z,3.86
2023-03-13T00:39:19.693Z,3.85
2023-03-13T00:42:59.773Z,3.81
2023-03-13T00:46:48.601Z,3.78
2023-03-13T00:50:34.589Z,3.81
2023-03-13T00:54:23.524Z,3.85
2023-03-13T00:58:02.354Z,3.86
2023-03-13T01:01:49.955Z,3.99
2023-03-13T01:05:28.797Z,3.97
2023-03-13T01:09:17.771Z,4.03
2023-03-13T01:13:06.512Z,4.15
2023-03-13T01:16:58.091Z,4.23
2023-03-13T01:20:47.397Z,4.22
2023-03-13T01:24:16.287Z,4.42
2023-03-13T01:28:05.172Z,4.54
2023-03-13T01:31:56.866Z,4.61
2023-03-13T01:35:45.451Z,4.59
2023-03-13T01:39:29.527Z,4.59
2023-03-13T01:43:33.294Z,4.64
2023-03-13T01:47:15.403Z,4.68
2023-03-13T01:51:09.088Z,4.60
2023-03-13T01:55:04.078Z,4.63
2023-03-13T01:58:53.067Z,4.66
2023-03-13T02:06:34.470Z,4.74
2023-03-13T02:10:23.896Z,4.62
2023-03-13T02:14:12.734Z,4.68
2023-03-13T02:18:01.388Z,4.67
2023-03-13T02:21:52.793Z,4.80
2023-03-13T02:25:47.246Z,4.74
2023-03-13T02:29:36.313Z,4.81
2023-03-13T02:33:25.485Z,4.84
2023-03-13T02:37:14.430Z,4.91
2023-03-13T02:41:00.631Z,4.88
2023-03-13T02:48:56.971Z,4.98
2023-03-13T02:52:51.490Z,5.08
2023-03-13T02:56:23.581Z,5.06
2023-03-13T03:00:52.749Z,5.18
2023-03-13T03:05:21.799Z,5.29
2023-03-13T03:09:50.716Z,5.36
2023-03-13T03:17:56.015Z,5.53
2023-03-13T03:22:24.974Z,5.54
2023-03-13T03:26:54.391Z,5.57
2023-03-13T03:31:23.398Z,5.69
2023-03-13T03:35:53.405Z,5.74
2023-03-13T03:39:38.619Z,5.78
2023-03-13T03:44:09.463Z,5.84
2023-03-13T03:47:50.663Z,5.86
2023-03-13T03:51:29.776Z,5.89
2023-03-13T03:55:14.483Z,5.90
2023-03-13T03:59:35.470Z,5.92
2023-03-13T04:03:28.038Z,5.99
2023-03-13T04:11:11.913Z,6.14
2023-03-13T04:19:24.905Z,6.28
2023-03-13T04:23:53.922Z,6.29
2023-03-13T04:27:57.141Z,6.38
2023-03-13T04:31:42.761Z,6.49
2023-03-13T04:36:05.315Z,6.44
2023-03-13T04:39:56.819Z,6.55
2023-03-13T04:43:44.000Z,6.71
2023-03-13T04:47:08.643Z,6.70
2023-03-13T04:50:57.517Z,6.64
2023-03-13T04:55:15.555Z,6.64
2023-03-13T04:59:16.570Z,6.48
2023-03-13T05:03:11.309Z,6.33
2023-03-13T05:07:08.954Z,6.16
2023-03-13T05:10:51.471Z,6.17
2023-03-13T05:14:52.334Z,6.22
2023-03-13T05:18:21.293Z,6.31
2023-03-13T05:26:31.907Z,6.31
2023-03-13T05:30:14.780Z,6.35
2023-03-13T05:34:21.547Z,6.47
2023-03-13T05:38:14.515Z,6.41
2023-03-13T05:42:26.128Z,6.62
2023-03-13T05:46:18.439Z,6.61
2023-03-13T05:50:13.946Z,6.76
2023-03-13T05:54:15.344Z,6.77
2023-03-13T05:58:24.888Z,6.81
2023-03-13T06:01:45.755Z,6.85
2023-03-13T06:05:54.654Z,6.92
2023-03-13T06:09:43.688Z,6.97
2023-03-13T06:13:38.626Z,7.09
2023-03-13T06:17:28.246Z,7.16
2023-03-13T06:21:27.623Z,7.24
2023-03-13T06:24:59.796Z,7.32
2023-03-13T06:28:48.717Z,7.28
2023-03-13T06:32:38.761Z,7.30
2023-03-13T06:36:27.757Z,7.34
2023-03-13T06:44:16.918Z,7.56
2023-03-13T06:48:26.734Z,7.63
2023-03-13T06:51:58.878Z,7.76
2023-03-13T06:56:28.103Z,7.72
2023-03-13T07:04:55.086Z,8.02
2023-03-13T07:08:58.792Z,8.07
2023-03-13T07:13:03.634Z,8.19
2023-03-13T07:17:32.904Z,8.29
2023-03-13T07:22:03.965Z,8.29
2023-03-13T07:25:31.443Z,8.34
2023-03-13T07:30:00.772Z,8.34
2023-03-13T07:34:30.278Z,8.44
2023-03-13T07:38:34.392Z,8.55
2023-03-13T07:42:24.186Z,8.61
2023-03-13T07:46:14.101Z,8.66
2023-03-13T07:50:03.912Z,8.65
2023-03-13T07:53:18.676Z,8.76
2023-03-13T07:57:31.082Z,8.76
2023-03-13T08:01:34.132Z,8.89
2023-03-13T08:05:23.700Z,8.92
2023-03-13T08:09:11.498Z,8.95
2023-03-13T08:13:23.130Z,9.00
2023-03-13T08:17:13.904Z,9.20
2023-03-13T08:21:04.944Z,9.32
2023-03-13T08:24:38.835Z,9.45
2023-03-13T08:28:28.824Z,9.46
2023-03-13T08:31:53.694Z,9.54
2023-03-13T08:35:30.927Z,9.64
2023-03-13T08:39:20.092Z,9.56
2023-03-13T08:43:31.623Z,9.62
2023-03-13T08:51:25.344Z,9.71
2023-03-13T08:55:08.404Z,9.74
2023-03-13T09:02:50.163Z,9.90
2023-03-13T09:06:14.019Z,9.96
2023-03-13T09:10:13.842Z,10.08
2023-03-13T09:14:02.741Z,10.12
2023-03-13T09:21:59.090Z,10.38
2023-03-13T09:29:58.736Z,10.49
2023-03-13T09:33:48.035Z,10.38
2023-03-13T09:37:37.687Z,10.31
2023-03-13T09:41:27.338Z,10.43
2023-03-13T09:45:13.555Z,10.51
2023-03-13T09:49:04.528Z,10.37
2023-03-13T09:52:58.331Z,10.62
2023-03-13T09:56:47.976Z,10.50
2023-03-13T10:00:43.548Z,10.59
2023-03-13T10:04:43.733Z,10.65
2023-03-13T10:08:32.106Z,10.49
2023-03-13T10:12:25.219Z,10.45
2023-03-13T10:16:22.383Z,10.40
2023-03-13T10:20:26.435Z,10.27
2023-03-13T10:24:21.499Z,10.24
2023-03-13T10:28:07.103Z,10.20
2023-03-13T10:38:43.011Z,10.11
2023-03-13T10:42:35.335Z,10.08
2023-03-13T10:46:19.166Z,10.13
2023-03-13T10:53:55.124Z,10.26
2023-03-13T10:57:48.962Z,10.35
2023-03-13T11:01:33.135Z,10.40
2023-03-13T11:13:35.580Z,10.38
2023-03-13T11:16:57.099Z,10.33
2023-03-13T11:33:41.916Z,10.32
2023-03-13T11:37:38.201Z,10.36
2023-03-13T11:46:20.341Z,10.28
2023-03-13T11:50:09.304Z,10.31
2023-03-13T11:54:10.423Z,10.30
2023-03-13T11:57:49.265Z,10.31
2023-03-13T12:01:56.692Z,10.36
2023-03-13T12:05:19.252Z,10.38
2023-03-13T12:09:26.625Z,10.35
2023-03-13T12:12:54.061Z,10.37
2023-03-13T12:16:42.398Z,10.51
2023-03-13T12:21:06.770Z,10.45
2023-03-13T12:25:13.865Z,10.48
2023-03-13T12:29:23.779Z,10.52
2023-03-13T12:33:24.168Z,10.48
2023-03-13T12:37:18.125Z,10.45
2023-03-13T12:41:18.590Z,10.48
2023-03-13T12:45:07.298Z,10.53
2023-03-13T12:48:42.370Z,10.61
2023-03-13T12:52:36.136Z,10.66
2023-03-13T12:56:40.924Z,10.66
2023-03-13T13:00:35.373Z,10.76
2023-03-13T13:04:26.295Z,10.92
2023-03-13T13:07:54.733Z,10.92
2023-03-13T13:11:19.132Z,11.01
2023-03-13T13:20:29.971Z,11.17
2023-03-13T13:24:08.097Z,11.23
2023-03-13T13:28:12.332Z,11.27
2023-03-13T13:32:31.013Z,11.28
2023-03-13T13:36:24.141Z,11.32
2023-03-13T13:40:41.429Z,11.43
2023-03-13T13:45:01.196Z,11.45
2023-03-13T13:48:58.073Z,11.56
2023-03-13T13:52:59.357Z,11.69
2023-03-13T13:56:47.205Z,11.71
2023-03-13T14:04:35.722Z,12.10
2023-03-13T14:08:31.711Z,12.15
2023-03-13T14:12:20.084Z,12.18
2023-03-13T14:16:19.518Z,12.23
2023-03-13T14:20:12.799Z,12.25
2023-03-13T14:24:10.853Z,12.15
2023-03-13T14:28:10.978Z,12.10
2023-03-13T14:32:15.162Z,12.16
2023-03-13T14:36:04.175Z,12.24
2023-03-13T14:40:16.025Z,12.31
2023-03-13T14:48:12.675Z,12.38
2023-03-13T14:52:04.446Z,12.52
2023-03-13T15:04:25.262Z,13.78
2023-03-13T15:08:20.078Z,14.06
2023-03-13T15:12:32.548Z,14.33
2023-03-13T15:16:24.203Z,14.32
2023-03-13T15:20:13.212Z,14.02
2023-03-13T15:23:57.315Z,13.86
2023-03-13T15:27:31.791Z,13.89
2023-03-13T15:31:23.455Z,13.98
2023-03-13T15:35:12.891Z,13.90
2023-03-13T15:38:57.501Z,13.87
2023-03-13T15:42:48.662Z,13.81
2023-03-13T15:46:38.384Z,13.76
2023-03-13T15:50:27.411Z,13.74
2023-03-13T15:54:11.881Z,13.68
2023-03-13T15:58:01.583Z,13.67
2023-03-13T16:01:51.820Z,13.61
2023-03-13T16:05:32.757Z,13.56
2023-03-13T16:09:20.996Z,13.49
2023-03-13T16:13:08.614Z,13.45
2023-03-13T16:16:57.487Z,13.48
2023-03-13T16:20:52.171Z,13.40
2023-03-13T16:24:43.678Z,13.41
2023-03-13T16:28:34.616Z,13.39
2023-03-13T16:32:24.875Z,13.36
2023-03-13T16:36:08.901Z,13.36
2023-03-13T16:40:04.170Z,13.34
2023-03-13T16:44:03.742Z,13.29
2023-03-13T16:48:01.793Z,13.28
2023-03-13T16:51:45.835Z,13.26
2023-03-13T16:55:27.879Z,13.23
2023-03-13T16:59:19.638Z,13.20
2023-03-13T17:03:08.551Z,13.17
2023-03-13T17:07:00.345Z,13.18
2023-03-13T17:11:01.992Z,13.15
2023-03-13T17:15:53.087Z,13.13
2023-03-13T17:20:24.723Z,13.03
2023-03-13T17:23:33.050Z,12.95
2023-03-13T17:27:20.224Z,12.92
2023-03-13T17:31:20.595Z,12.88
2023-03-13T17:35:01.435Z,12.82
2023-03-13T17:38:50.203Z,12.69
2023-03-13T17:42:32.673Z,12.67
2023-03-13T17:46:21.451Z,12.68
2023-03-13T17:50:09.485Z,12.72
2023-03-13T17:53:58.411Z,12.66
2023-03-13T17:57:56.167Z,12.58
2023-03-13T18:01:20.695Z,12.48
2023-03-13T18:05:09.427Z,12.52
2023-03-13T18:08:56.112Z,12.51
2023-03-13T18:12:48.427Z,12.57
2023-03-13T18:16:38.527Z,12.56
2023-03-13T18:20:29.282Z,12.52
2023-03-13T18:24:14.640Z,12.46
2023-03-13T18:28:06.634Z,12.42
2023-03-13T18:31:49.477Z,12.36
2023-03-13T18:36:25.332Z,12.37
2023-03-13T18:39:46.327Z,12.28
2023-03-13T18:43:35.566Z,12.24
2023-03-13T18:47:24.376Z,12.26
2023-03-13T18:51:16.126Z,12.19
2023-03-13T18:55:05.034Z,12.10
2023-03-13T18:58:44.207Z,12.02
2023-03-13T19:02:33.080Z,11.96
2023-03-13T19:06:22.297Z,11.92
2023-03-13T19:10:10.658Z,11.86
2023-03-13T19:13:59.426Z,11.83
2023-03-13T19:17:31.257Z,11.78
2023-03-13T19:21:20.240Z,11.75
2023-03-13T19:25:12.208Z,11.66
2023-03-13T19:29:57.149Z,11.60
2023-03-13T19:33:07.715Z,11.62
2023-03-13T19:36:51.044Z,11.58
2023-03-13T19:40:34.255Z,11.57
2023-03-13T19:44:20.152Z,11.66
2023-03-13T19:48:00.280Z,11.71
2023-03-13T19:51:49.793Z,11.78
2023-03-13T19:55:39.116Z,11.86
2023-03-13T19:59:30.156Z,11.90
2023-03-13T20:03:09.852Z,11.92
2023-03-13T20:06:45.424Z,11.89
2023-03-13T20:10:34.280Z,11.89
2023-03-13T20:14:13.431Z,11.91
2023-03-13T20:17:46.927Z,11.98
2023-03-13T20:21:35.090Z,11.95
2023-03-13T20:25:24.791Z,11.96
2023-03-13T20:29:09.234Z,12.01
2023-03-13T20:32:59.684Z,12.06
2023-03-13T20:36:48.385Z,12.11
2023-03-13T20:40:36.276Z,12.18
2023-03-13T20:44:04.128Z,12.28
2023-03-13T20:47:51.897Z,12.33
2023-03-13T20:51:32.977Z,12.37
2023-03-13T20:55:19.626Z,12.38
2023-03-13T20:59:00.468Z,12.42
2023-03-13T21:02:52.166Z,12.49
2023-03-13T21:06:38.691Z,12.54
2023-03-13T21:10:25.232Z,12.63
2023-03-13T21:13:57.917Z,12.66
2023-03-13T21:17:35.412Z,12.66
2023-03-13T21:21:22.635Z,12.68
2023-03-13T21:25:07.125Z,12.75
2023-03-13T21:28:54.908Z,12.75
2023-03-13T21:32:35.497Z,12.77
2023-03-13T21:36:23.134Z,12.76
2023-03-13T21:40:11.169Z,12.79
2023-03-13T21:43:29.041Z,12.81
2023-03-13T21:47:12.826Z,12.83
2023-03-13T21:50:46.786Z,12.84
2023-03-13T21:54:15.996Z,12.82
2023-03-13T21:57:50.011Z,12.85
2023-03-13T22:01:38.253Z,12.81
2023-03-13T22:05:31.047Z,12.88
2023-03-13T22:09:17.146Z,12.87
2023-03-13T22:13:05.453Z,12.91
2023-03-13T22:16:45.883Z,12.97
2023-03-13T22:20:26.021Z,13.01
2023-03-13T22:24:13.744Z,12.99
2023-03-13T22:28:02.371Z,13.03
2023-03-13T22:31:42.991Z,13.05
2023-03-13T22:35:30.711Z,13.19
2023-03-13T22:39:18.239Z,13.21
2023-03-13T22:43:03.128Z,13.20
2023-03-13T22:46:35.557Z,13.18
2023-03-13T22:50:07.269Z,13.12
2023-03-13T22:53:54.763Z,13.05
2023-03-13T22:57:35.038Z,13.04
2023-03-13T23:01:20.167Z,13.03
2023-03-13T23:05:07.967Z,12.96
2023-03-13T23:08:31.139Z,12.94
2023-03-13T23:12:18.732Z,12.90
2023-03-13T23:16:06.567Z,12.94
2023-03-13T23:19:53.870Z,12.87
2023-03-13T23:23:34.052Z,12.83
2023-03-13T23:27:13.964Z,12.84
2023-03-13T23:30:37.617Z,12.80
2023-03-13T23:34:18.476Z,12.71
2023-03-13T23:37:58.250Z,12.70
2023-03-13T23:41:45.806Z,12.74
2023-03-13T23:45:33.256Z,12.77
2023-03-13T23:49:07.957Z,12.75
2023-03-13T23:52:47.250Z,12.75
2023-03-13T23:56:36.869Z,12.76
